Leones, Argentina
Current Conditions -  °F | °C
As of 3:00 AM on Monday 29 Dec 2014 (Local Time) from SAAR Reporting Station
Clear Clear  
Wind Chill: 73°   Ceiling: Unl
Heat Index: 73°   Visibility: 6mi
Dew Point: 70°   Wind: 6mph
Humidity: 88%   Direction: 320°NW
Pressure: 29.74"   Gusts: NA
Location:  32.65°S, 62.3°W
Report Text: SAAR 290600Z 32005KT CAVOK 23/21 Q1007
Loading
Personal Weather Stations






























Interactive Weather Map New forecast layout! Learn more

10-Day Weather Forecast

Advertisements
Track Severe Weather on mobile